sensor_id;sensor_type;location;lat;lon;timestamp;P1;durP1;ratioP1;P2;durP2;ratioP2
1995;SDS011;38556;47.068;15.408;2023-02-02T00:00:55;18.90;;;17.80;;
1995;SDS011;38556;47.068;15.408;2023-02-02T00:03:22;18.15;;;17.25;;
1995;SDS011;38556;47.068;15.408;2023-02-02T00:05:51;17.60;;;16.80;;
1995;SDS011;38556;47.068;15.408;2023-02-02T00:08:19;18.05;;;17.15;;
1995;SDS011;38556;47.068;15.408;2023-02-02T00:10:47;16.70;;;16.00;;
1995;SDS011;38556;47.068;15.408;2023-02-02T00:13:15;16.60;;;15.90;;
1995;SDS011;38556;47.068;15.408;2023-02-02T00:15:42;16.63;;;15.93;;
1995;SDS011;38556;47.068;15.408;2023-02-02T00:18:10;17.00;;;16.30;;
1995;SDS011;38556;47.068;15.408;2023-02-02T00:20:38;17.63;;;16.67;;
1995;SDS011;38556;47.068;15.408;2023-02-02T00:23:06;17.40;;;16.60;;
1995;SDS011;38556;47.068;15.408;2023-02-02T00:25:34;17.20;;;16.50;;
1995;SDS011;38556;47.068;15.408;2023-02-02T00:28:01;17.67;;;16.77;;
1995;SDS011;38556;47.068;15.408;2023-02-02T00:30:28;18.40;;;17.50;;
1995;SDS011;38556;47.068;15.408;2023-02-02T00:32:55;17.85;;;17.05;;
1995;SDS011;38556;47.068;15.408;2023-02-02T00:35:23;17.48;;;16.77;;
1995;SDS011;38556;47.068;15.408;2023-02-02T00:37:50;17.60;;;16.80;;
1995;SDS011;38556;47.068;15.408;2023-02-02T00:40:19;17.67;;;16.88;;
1995;SDS011;38556;47.068;15.408;2023-02-02T00:42:46;16.90;;;16.20;;
1995;SDS011;38556;47.068;15.408;2023-02-02T00:45:15;17.25;;;16.55;;
1995;SDS011;38556;47.068;15.408;2023-02-02T00:47:42;17.30;;;16.50;;
1995;SDS011;38556;47.068;15.408;2023-02-02T00:50:10;17.67;;;16.77;;
1995;SDS011;38556;47.068;15.408;2023-02-02T00:52:39;17.25;;;16.55;;
1995;SDS011;38556;47.068;15.408;2023-02-02T00:55:07;17.67;;;16.73;;
1995;SDS011;38556;47.068;15.408;2023-02-02T00:57:37;17.70;;;16.90;;
1995;SDS011;38556;47.068;15.408;2023-02-02T01:00:06;17.48;;;16.60;;
1995;SDS011;38556;47.068;15.408;2023-02-02T01:02:34;16.98;;;16.27;;
1995;SDS011;38556;47.068;15.408;2023-02-02T01:05:02;16.70;;;16.00;;
1995;SDS011;38556;47.068;15.408;2023-02-02T01:07:30;17.20;;;16.50;;
1995;SDS011;38556;47.068;15.408;2023-02-02T01:09:57;17.27;;;16.20;;
1995;SDS011;38556;47.068;15.408;2023-02-02T01:12:24;16.70;;;16.00;;
1995;SDS011;38556;47.068;15.408;2023-02-02T01:14:53;16.88;;;16.17;;
1995;SDS011;38556;47.068;15.408;2023-02-02T01:17:20;16.92;;;16.23;;
1995;SDS011;38556;47.068;15.408;2023-02-02T01:19:50;16.98;;;16.27;;
1995;SDS011;38556;47.068;15.408;2023-02-02T01:22:17;17.25;;;16.45;;
1995;SDS011;38556;47.068;15.408;2023-02-02T01:24:44;17.20;;;16.50;;
1995;SDS011;38556;47.068;15.408;2023-02-02T01:27:11;17.25;;;16.55;;
1995;SDS011;38556;47.068;15.408;2023-02-02T01:29:39;17.05;;;16.35;;
1995;SDS011;38556;47.068;15.408;2023-02-02T01:32:08;16.90;;;16.20;;
1995;SDS011;38556;47.068;15.408;2023-02-02T01:34:36;17.20;;;16.40;;
1995;SDS011;38556;47.068;15.408;2023-02-02T01:37:05;17.05;;;16.35;;
1995;SDS011;38556;47.068;15.408;2023-02-02T01:39:33;17.10;;;16.30;;
1995;SDS011;38556;47.068;15.408;2023-02-02T01:42:00;16.70;;;16.00;;
1995;SDS011;38556;47.068;15.408;2023-02-02T01:47:34;16.90;;;16.20;;
1995;SDS011;38556;47.068;15.408;2023-02-02T01:50:05;16.90;;;16.20;;
1995;SDS011;38556;47.068;15.408;2023-02-02T01:52:36;17.20;;;16.50;;
1995;SDS011;38556;47.068;15.408;2023-02-02T01:55:06;17.20;;;16.50;;
1995;SDS011;38556;47.068;15.408;2023-02-02T01:57:37;17.25;;;16.35;;
1995;SDS011;38556;47.068;15.408;2023-02-02T02:00:07;17.10;;;16.40;;
1995;SDS011;38556;47.068;15.408;2023-02-02T02:02:39;17.20;;;16.50;;
1995;SDS011;38556;47.068;15.408;2023-02-02T02:05:08;16.80;;;16.10;;
1995;SDS011;38556;47.068;15.408;2023-02-02T02:07:38;17.33;;;16.42;;
1995;SDS011;38556;47.068;15.408;2023-02-02T02:10:09;16.85;;;16.15;;
1995;SDS011;38556;47.068;15.408;2023-02-02T02:12:36;17.10;;;16.40;;
1995;SDS011;38556;47.068;15.408;2023-02-02T02:15:04;17.50;;;16.70;;
1995;SDS011;38556;47.068;15.408;2023-02-02T02:17:56;17.75;;;17.05;;
1995;SDS011;38556;47.068;15.408;2023-02-02T02:24:04;17.02;;;16.33;;
1995;SDS011;38556;47.068;15.408;2023-02-02T02:27:27;16.88;;;16.17;;
1995;SDS011;38556;47.068;15.408;2023-02-02T02:30:39;17.30;;;16.60;;
1995;SDS011;38556;47.068;15.408;2023-02-02T02:33:27;17.33;;;16.63;;
1995;SDS011;38556;47.068;15.408;2023-02-02T02:36:07;17.30;;;16.60;;
1995;SDS011;38556;47.068;15.408;2023-02-02T02:38:43;16.90;;;16.20;;
1995;SDS011;38556;47.068;15.408;2023-02-02T02:41:15;17.30;;;16.50;;
1995;SDS011;38556;47.068;15.408;2023-02-02T02:43:47;17.35;;;16.65;;
1995;SDS011;38556;47.068;15.408;2023-02-02T02:46:19;17.20;;;16.50;;
1995;SDS011;38556;47.068;15.408;2023-02-02T02:48:49;17.50;;;16.80;;
1995;SDS011;38556;47.068;15.408;2023-02-02T02:54:07;16.98;;;16.27;;
1995;SDS011;38556;47.068;15.408;2023-02-02T02:56:38;17.60;;;16.80;;
1995;SDS011;38556;47.068;15.408;2023-02-02T02:59:18;17.40;;;16.70;;
1995;SDS011;38556;47.068;15.408;2023-02-02T03:01:59;17.30;;;16.50;;
1995;SDS011;38556;47.068;15.408;2023-02-02T03:04:45;17.30;;;16.60;;
1995;SDS011;38556;47.068;15.408;2023-02-02T03:07:20;17.20;;;16.50;;
1995;SDS011;38556;47.068;15.408;2023-02-02T03:09:52;17.73;;;17.00;;
1995;SDS011;38556;47.068;15.408;2023-02-02T03:12:22;18.52;;;17.73;;
1995;SDS011;38556;47.068;15.408;2023-02-02T03:14:50;17.90;;;17.20;;
1995;SDS011;38556;47.068;15.408;2023-02-02T03:17:17;18.27;;;17.50;;
1995;SDS011;38556;47.068;15.408;2023-02-02T03:19:46;18.00;;;17.20;;
1995;SDS011;38556;47.068;15.408;2023-02-02T03:22:13;17.50;;;16.80;;
1995;SDS011;38556;47.068;15.408;2023-02-02T03:24:40;18.40;;;17.60;;
1995;SDS011;38556;47.068;15.408;2023-02-02T03:27:08;17.88;;;17.17;;
1995;SDS011;38556;47.068;15.408;2023-02-02T03:29:35;18.10;;;17.30;;
1995;SDS011;38556;47.068;15.408;2023-02-02T03:32:03;18.38;;;17.58;;
1995;SDS011;38556;47.068;15.408;2023-02-02T03:34:33;17.95;;;17.25;;
1995;SDS011;38556;47.068;15.408;2023-02-02T03:37:01;18.55;;;17.75;;
1995;SDS011;38556;47.068;15.408;2023-02-02T03:39:29;18.40;;;17.60;;
1995;SDS011;38556;47.068;15.408;2023-02-02T03:41:56;18.92;;;18.13;;
1995;SDS011;38556;47.068;15.408;2023-02-02T03:44:23;18.88;;;18.08;;
1995;SDS011;38556;47.068;15.408;2023-02-02T03:46:52;18.60;;;17.80;;
1995;SDS011;38556;47.068;15.408;2023-02-02T03:49:19;18.92;;;18.13;;
1995;SDS011;38556;47.068;15.408;2023-02-02T03:51:47;18.67;;;17.88;;
1995;SDS011;38556;47.068;15.408;2023-02-02T03:54:15;18.45;;;17.65;;
1995;SDS011;38556;47.068;15.408;2023-02-02T03:56:43;17.92;;;17.23;;
1995;SDS011;38556;47.068;15.408;2023-02-02T03:59:10;18.63;;;17.83;;
1995;SDS011;38556;47.068;15.408;2023-02-02T04:01:37;17.92;;;17.13;;
1995;SDS011;38556;47.068;15.408;2023-02-02T04:04:04;18.20;;;17.50;;
1995;SDS011;38556;47.068;15.408;2023-02-02T04:06:32;18.50;;;17.70;;
1995;SDS011;38556;47.068;15.408;2023-02-02T04:08:59;17.90;;;17.20;;
1995;SDS011;38556;47.068;15.408;2023-02-02T04:11:29;18.52;;;17.65;;
1995;SDS011;38556;47.068;15.408;2023-02-02T04:13:56;17.83;;;17.13;;
1995;SDS011;38556;47.068;15.408;2023-02-02T04:16:23;17.40;;;16.70;;
1995;SDS011;38556;47.068;15.408;2023-02-02T04:18:50;17.40;;;16.70;;
1995;SDS011;38556;47.068;15.408;2023-02-02T04:21:17;17.95;;;17.25;;
1995;SDS011;38556;47.068;15.408;2023-02-02T04:23:45;17.98;;;17.27;;
1995;SDS011;38556;47.068;15.408;2023-02-02T04:26:13;17.40;;;16.70;;
1995;SDS011;38556;47.068;15.408;2023-02-02T04:28:42;17.63;;;16.92;;
1995;SDS011;38556;47.068;15.408;2023-02-02T04:31:10;17.33;;;16.63;;
1995;SDS011;38556;47.068;15.408;2023-02-02T04:33:37;17.45;;;16.75;;
1995;SDS011;38556;47.068;15.408;2023-02-02T04:36:05;17.08;;;16.40;;
1995;SDS011;38556;47.068;15.408;2023-02-02T04:38:32;19.50;;;18.60;;
1995;SDS011;38556;47.068;15.408;2023-02-02T04:41:04;17.77;;;17.08;;
1995;SDS011;38556;47.068;15.408;2023-02-02T04:43:32;17.80;;;17.10;;
1995;SDS011;38556;47.068;15.408;2023-02-02T04:46:01;18.13;;;17.42;;
1995;SDS011;38556;47.068;15.408;2023-02-02T04:48:28;18.05;;;17.35;;
1995;SDS011;38556;47.068;15.408;2023-02-02T04:50:59;17.60;;;16.90;;
1995;SDS011;38556;47.068;15.408;2023-02-02T04:53:27;17.20;;;16.50;;
1995;SDS011;38556;47.068;15.408;2023-02-02T04:55:54;17.80;;;17.00;;
1995;SDS011;38556;47.068;15.408;2023-02-02T04:58:21;17.15;;;16.45;;
1995;SDS011;38556;47.068;15.408;2023-02-02T05:00:49;17.80;;;17.10;;
1995;SDS011;38556;47.068;15.408;2023-02-02T05:03:18;18.00;;;17.30;;
1995;SDS011;38556;47.068;15.408;2023-02-02T05:05:45;17.90;;;17.20;;
1995;SDS011;38556;47.068;15.408;2023-02-02T05:08:13;18.02;;;17.33;;
1995;SDS011;38556;47.068;15.408;2023-02-02T05:10:40;17.90;;;17.20;;
1995;SDS011;38556;47.068;15.408;2023-02-02T05:13:07;17.35;;;16.65;;
1995;SDS011;38556;47.068;15.408;2023-02-02T05:15:35;16.80;;;16.20;;
1995;SDS011;38556;47.068;15.408;2023-02-02T05:18:02;16.90;;;16.30;;
1995;SDS011;38556;47.068;15.408;2023-02-02T05:20:31;16.95;;;16.35;;
1995;SDS011;38556;47.068;15.408;2023-02-02T05:22:58;17.40;;;16.80;;
1995;SDS011;38556;47.068;15.408;2023-02-02T05:25:25;17.30;;;16.60;;
1995;SDS011;38556;47.068;15.408;2023-02-02T05:27:53;17.40;;;16.70;;
1995;SDS011;38556;47.068;15.408;2023-02-02T05:30:20;17.27;;;16.67;;
1995;SDS011;38556;47.068;15.408;2023-02-02T05:32:48;16.80;;;16.20;;
1995;SDS011;38556;47.068;15.408;2023-02-02T05:35:15;16.80;;;16.10;;
1995;SDS011;38556;47.068;15.408;2023-02-02T05:37:44;17.10;;;16.40;;
1995;SDS011;38556;47.068;15.408;2023-02-02T05:40:11;16.90;;;16.20;;
1995;SDS011;38556;47.068;15.408;2023-02-02T05:42:39;16.40;;;15.80;;
1995;SDS011;38556;47.068;15.408;2023-02-02T05:45:07;16.52;;;15.93;;
1995;SDS011;38556;47.068;15.408;2023-02-02T05:47:34;17.42;;;16.73;;
1995;SDS011;38556;47.068;15.408;2023-02-02T05:50:02;16.70;;;16.10;;
1995;SDS011;38556;47.068;15.408;2023-02-02T05:52:29;16.08;;;15.38;;
1995;SDS011;38556;47.068;15.408;2023-02-02T05:55:01;16.52;;;15.85;;
1995;SDS011;38556;47.068;15.408;2023-02-02T05:57:29;15.95;;;15.35;;
1995;SDS011;38556;47.068;15.408;2023-02-02T05:59:56;15.20;;;14.60;;
1995;SDS011;38556;47.068;15.408;2023-02-02T06:02:24;14.18;;;13.68;;
1995;SDS011;38556;47.068;15.408;2023-02-02T06:04:51;15.35;;;14.55;;
1995;SDS011;38556;47.068;15.408;2023-02-02T06:07:19;15.30;;;14.70;;
1995;SDS011;38556;47.068;15.408;2023-02-02T06:09:46;15.30;;;14.70;;
1995;SDS011;38556;47.068;15.408;2023-02-02T06:12:15;14.95;;;14.40;;
1995;SDS011;38556;47.068;15.408;2023-02-02T06:14:43;16.27;;;15.60;;
1995;SDS011;38556;47.068;15.408;2023-02-02T06:17:10;15.30;;;14.70;;
1995;SDS011;38556;47.068;15.408;2023-02-02T06:19:38;16.10;;;15.32;;
1995;SDS011;38556;47.068;15.408;2023-02-02T06:22:05;16.80;;;15.88;;
1995;SDS011;38556;47.068;15.408;2023-02-02T06:24:32;15.40;;;14.80;;
1995;SDS011;38556;47.068;15.408;2023-02-02T06:27:00;15.48;;;14.88;;
1995;SDS011;38556;47.068;15.408;2023-02-02T06:29:28;14.95;;;14.35;;
1995;SDS011;38556;47.068;15.408;2023-02-02T06:31:56;15.38;;;14.57;;
1995;SDS011;38556;47.068;15.408;2023-02-02T06:34:23;14.75;;;14.20;;
1995;SDS011;38556;47.068;15.408;2023-02-02T06:36:50;14.52;;;13.93;;
1995;SDS011;38556;47.068;15.408;2023-02-02T06:39:18;16.33;;;15.63;;
1995;SDS011;38556;47.068;15.408;2023-02-02T06:41:45;14.40;;;13.80;;
1995;SDS011;38556;47.068;15.408;2023-02-02T06:44:13;14.23;;;13.65;;
1995;SDS011;38556;47.068;15.408;2023-02-02T06:46:41;14.70;;;14.20;;
1995;SDS011;38556;47.068;15.408;2023-02-02T06:49:09;16.20;;;15.50;;
1995;SDS011;38556;47.068;15.408;2023-02-02T06:51:36;14.10;;;13.60;;
1995;SDS011;38556;47.068;15.408;2023-02-02T06:54:04;14.52;;;13.85;;
1995;SDS011;38556;47.068;15.408;2023-02-02T06:56:31;15.40;;;14.80;;
1995;SDS011;38556;47.068;15.408;2023-02-02T06:58:59;15.30;;;14.50;;
1995;SDS011;38556;47.068;15.408;2023-02-02T07:01:26;14.80;;;14.20;;
1995;SDS011;38556;47.068;15.408;2023-02-02T07:03:55;15.00;;;14.50;;
1995;SDS011;38556;47.068;15.408;2023-02-02T07:06:23;15.85;;;15.25;;
1995;SDS011;38556;47.068;15.408;2023-02-02T07:08:51;16.00;;;15.40;;
1995;SDS011;38556;47.068;15.408;2023-02-02T07:11:20;15.60;;;15.00;;
1995;SDS011;38556;47.068;15.408;2023-02-02T07:13:48;25.08;;;23.30;;
1995;SDS011;38556;47.068;15.408;2023-02-02T07:16:16;22.67;;;21.42;;
1995;SDS011;38556;47.068;15.408;2023-02-02T07:18:44;16.55;;;15.80;;
1995;SDS011;38556;47.068;15.408;2023-02-02T07:21:18;15.45;;;14.75;;
1995;SDS011;38556;47.068;15.408;2023-02-02T07:23:47;16.65;;;15.90;;
1995;SDS011;38556;47.068;15.408;2023-02-02T07:26:15;15.57;;;14.88;;
1995;SDS011;38556;47.068;15.408;2023-02-02T07:28:43;15.27;;;14.57;;
1995;SDS011;38556;47.068;15.408;2023-02-02T07:31:11;16.30;;;15.60;;
1995;SDS011;38556;47.068;15.408;2023-02-02T07:33:40;16.70;;;16.00;;
1995;SDS011;38556;47.068;15.408;2023-02-02T07:36:08;16.75;;;16.05;;
1995;SDS011;38556;47.068;15.408;2023-02-02T07:38:37;16.00;;;15.20;;
1995;SDS011;38556;47.068;15.408;2023-02-02T07:41:05;16.35;;;15.30;;
1995;SDS011;38556;47.068;15.408;2023-02-02T07:43:32;16.88;;;16.05;;
1995;SDS011;38556;47.068;15.408;2023-02-02T07:46:00;16.10;;;15.40;;
1995;SDS011;38556;47.068;15.408;2023-02-02T07:48:28;16.42;;;15.52;;
1995;SDS011;38556;47.068;15.408;2023-02-02T07:50:57;16.70;;;15.98;;
1995;SDS011;38556;47.068;15.408;2023-02-02T07:53:26;17.60;;;16.70;;
1995;SDS011;38556;47.068;15.408;2023-02-02T07:55:58;16.70;;;15.75;;
1995;SDS011;38556;47.068;15.408;2023-02-02T07:58:32;17.48;;;16.50;;
1995;SDS011;38556;47.068;15.408;2023-02-02T08:00:59;16.95;;;16.00;;
1995;SDS011;38556;47.068;15.408;2023-02-02T08:03:28;16.80;;;16.00;;
1995;SDS011;38556;47.068;15.408;2023-02-02T08:05:55;16.77;;;15.98;;
1995;SDS011;38556;47.068;15.408;2023-02-02T08:08:23;17.70;;;16.50;;
1995;SDS011;38556;47.068;15.408;2023-02-02T08:10:51;17.95;;;16.92;;
1995;SDS011;38556;47.068;15.408;2023-02-02T08:13:20;18.25;;;17.15;;
1995;SDS011;38556;47.068;15.408;2023-02-02T08:15:48;17.67;;;16.88;;
1995;SDS011;38556;47.068;15.408;2023-02-02T08:18:15;17.58;;;16.52;;
1995;SDS011;38556;47.068;15.408;2023-02-02T08:20:42;17.00;;;16.30;;
1995;SDS011;38556;47.068;15.408;2023-02-02T08:23:10;18.58;;;17.02;;
1995;SDS011;38556;47.068;15.408;2023-02-02T08:25:40;17.98;;;17.08;;
1995;SDS011;38556;47.068;15.408;2023-02-02T08:28:07;18.52;;;17.50;;
1995;SDS011;38556;47.068;15.408;2023-02-02T08:30:36;18.63;;;17.60;;
1995;SDS011;38556;47.068;15.408;2023-02-02T08:33:04;19.48;;;18.25;;
1995;SDS011;38556;47.068;15.408;2023-02-02T08:35:31;18.38;;;17.42;;
1995;SDS011;38556;47.068;15.408;2023-02-02T08:37:58;19.60;;;18.42;;
1995;SDS011;38556;47.068;15.408;2023-02-02T08:40:27;19.60;;;18.60;;
1995;SDS011;38556;47.068;15.408;2023-02-02T08:42:54;19.30;;;18.30;;
1995;SDS011;38556;47.068;15.408;2023-02-02T08:45:22;18.98;;;17.95;;
1995;SDS011;38556;47.068;15.408;2023-02-02T08:47:51;19.15;;;18.02;;
1995;SDS011;38556;47.068;15.408;2023-02-02T08:50:20;18.95;;;17.75;;
1995;SDS011;38556;47.068;15.408;2023-02-02T08:52:47;19.27;;;18.17;;
1995;SDS011;38556;47.068;15.408;2023-02-02T08:55:14;18.90;;;17.75;;
1995;SDS011;38556;47.068;15.408;2023-02-02T08:57:42;19.17;;;18.08;;
1995;SDS011;38556;47.068;15.408;2023-02-02T09:00:10;19.55;;;18.55;;
1995;SDS011;38556;47.068;15.408;2023-02-02T09:02:38;19.60;;;18.40;;
1995;SDS011;38556;47.068;15.408;2023-02-02T09:05:07;20.55;;;19.25;;
1995;SDS011;38556;47.068;15.408;2023-02-02T09:07:34;21.58;;;20.20;;
1995;SDS011;38556;47.068;15.408;2023-02-02T09:10:02;20.88;;;19.63;;
1995;SDS011;38556;47.068;15.408;2023-02-02T09:12:29;19.38;;;18.33;;
1995;SDS011;38556;47.068;15.408;2023-02-02T09:14:57;20.42;;;18.60;;
1995;SDS011;38556;47.068;15.408;2023-02-02T09:17:24;21.50;;;20.15;;
1995;SDS011;38556;47.068;15.408;2023-02-02T09:19:54;20.75;;;19.65;;
1995;SDS011;38556;47.068;15.408;2023-02-02T09:22:23;20.08;;;18.98;;
1995;SDS011;38556;47.068;15.408;2023-02-02T09:24:51;21.38;;;20.17;;
1995;SDS011;38556;47.068;15.408;2023-02-02T09:27:18;20.50;;;19.30;;
1995;SDS011;38556;47.068;15.408;2023-02-02T09:29:46;21.05;;;19.63;;
1995;SDS011;38556;47.068;15.408;2023-02-02T09:32:13;20.60;;;19.38;;
1995;SDS011;38556;47.068;15.408;2023-02-02T09:34:40;19.95;;;18.95;;
1995;SDS011;38556;47.068;15.408;2023-02-02T09:37:08;18.92;;;17.55;;
1995;SDS011;38556;47.068;15.408;2023-02-02T09:39:37;20.92;;;19.60;;
1995;SDS011;38556;47.068;15.408;2023-02-02T09:42:11;19.10;;;18.10;;
1995;SDS011;38556;47.068;15.408;2023-02-02T09:45:01;20.35;;;19.15;;
1995;SDS011;38556;47.068;15.408;2023-02-02T09:47:46;19.75;;;18.20;;
1995;SDS011;38556;47.068;15.408;2023-02-02T09:50:20;18.35;;;17.45;;
1995;SDS011;38556;47.068;15.408;2023-02-02T09:53:01;19.30;;;18.13;;
1995;SDS011;38556;47.068;15.408;2023-02-02T09:55:34;18.60;;;17.65;;
1995;SDS011;38556;47.068;15.408;2023-02-02T09:58:05;18.40;;;17.30;;
1995;SDS011;38556;47.068;15.408;2023-02-02T10:00:40;18.73;;;17.63;;
1995;SDS011;38556;47.068;15.408;2023-02-02T10:03:12;19.15;;;17.95;;
1995;SDS011;38556;47.068;15.408;2023-02-02T10:05:45;18.75;;;17.40;;
1995;SDS011;38556;47.068;15.408;2023-02-02T10:08:20;18.63;;;17.27;;
1995;SDS011;38556;47.068;15.408;2023-02-02T10:10:55;17.88;;;16.77;;
1995;SDS011;38556;47.068;15.408;2023-02-02T10:13:24;17.05;;;16.25;;
1995;SDS011;38556;47.068;15.408;2023-02-02T10:15:58;17.55;;;16.65;;
1995;SDS011;38556;47.068;15.408;2023-02-02T10:18:36;17.60;;;16.90;;
1995;SDS011;38556;47.068;15.408;2023-02-02T10:21:10;18.60;;;17.50;;
1995;SDS011;38556;47.068;15.408;2023-02-02T10:23:39;18.00;;;17.00;;
1995;SDS011;38556;47.068;15.408;2023-02-02T10:26:13;19.65;;;18.40;;
1995;SDS011;38556;47.068;15.408;2023-02-02T10:28:44;19.70;;;18.60;;
1995;SDS011;38556;47.068;15.408;2023-02-02T10:31:26;19.10;;;17.73;;
1995;SDS011;38556;47.068;15.408;2023-02-02T10:34:05;20.15;;;19.05;;
1995;SDS011;38556;47.068;15.408;2023-02-02T10:36:45;18.70;;;17.48;;
1995;SDS011;38556;47.068;15.408;2023-02-02T10:39:38;19.00;;;17.80;;
1995;SDS011;38556;47.068;15.408;2023-02-02T10:42:17;19.38;;;18.27;;
1995;SDS011;38556;47.068;15.408;2023-02-02T10:44:55;18.75;;;17.85;;
1995;SDS011;38556;47.068;15.408;2023-02-02T10:47:26;18.80;;;17.88;;
1995;SDS011;38556;47.068;15.408;2023-02-02T10:49:59;18.30;;;17.40;;
1995;SDS011;38556;47.068;15.408;2023-02-02T10:52:33;17.40;;;16.58;;
1995;SDS011;38556;47.068;15.408;2023-02-02T10:55:02;17.92;;;16.92;;
1995;SDS011;38556;47.068;15.408;2023-02-02T10:57:50;17.95;;;16.95;;
1995;SDS011;38556;47.068;15.408;2023-02-02T11:00:24;18.33;;;17.42;;
1995;SDS011;38556;47.068;15.408;2023-02-02T11:02:56;19.60;;;18.40;;
1995;SDS011;38556;47.068;15.408;2023-02-02T11:05:29;17.85;;;17.05;;
1995;SDS011;38556;47.068;15.408;2023-02-02T11:08:16;17.60;;;16.70;;
1995;SDS011;38556;47.068;15.408;2023-02-02T11:10:44;18.73;;;17.83;;
1995;SDS011;38556;47.068;15.408;2023-02-02T11:13:20;18.40;;;17.50;;
1995;SDS011;38556;47.068;15.408;2023-02-02T11:18:53;18.02;;;17.23;;
1995;SDS011;38556;47.068;15.408;2023-02-02T11:21:21;18.95;;;17.95;;
1995;SDS011;38556;47.068;15.408;2023-02-02T11:23:52;19.27;;;18.30;;
1995;SDS011;38556;47.068;15.408;2023-02-02T11:26:21;19.20;;;18.30;;
1995;SDS011;38556;47.068;15.408;2023-02-02T11:28:52;19.95;;;18.98;;
1995;SDS011;38556;47.068;15.408;2023-02-02T11:31:34;20.05;;;18.60;;
1995;SDS011;38556;47.068;15.408;2023-02-02T11:34:07;18.20;;;17.30;;
1995;SDS011;38556;47.068;15.408;2023-02-02T11:37:01;17.65;;;16.85;;
1995;SDS011;38556;47.068;15.408;2023-02-02T11:39:36;18.05;;;17.25;;
1995;SDS011;38556;47.068;15.408;2023-02-02T11:42:04;18.05;;;17.25;;
1995;SDS011;38556;47.068;15.408;2023-02-02T11:44:35;18.60;;;17.80;;
1995;SDS011;38556;47.068;15.408;2023-02-02T11:47:05;18.63;;;17.77;;
1995;SDS011;38556;47.068;15.408;2023-02-02T11:49:36;18.92;;;18.02;;
1995;SDS011;38556;47.068;15.408;2023-02-02T11:52:12;19.67;;;18.67;;
1995;SDS011;38556;47.068;15.408;2023-02-02T11:54:44;18.00;;;17.10;;
1995;SDS011;38556;47.068;15.408;2023-02-02T11:57:15;17.10;;;16.40;;
1995;SDS011;38556;47.068;15.408;2023-02-02T11:59:47;20.05;;;19.15;;
1995;SDS011;38556;47.068;15.408;2023-02-02T12:02:20;19.63;;;18.75;;
1995;SDS011;38556;47.068;15.408;2023-02-02T12:05:19;20.08;;;19.08;;
1995;SDS011;38556;47.068;15.408;2023-02-02T12:07:59;21.15;;;19.90;;
1995;SDS011;38556;47.068;15.408;2023-02-02T12:10:29;21.02;;;19.73;;
1995;SDS011;38556;47.068;15.408;2023-02-02T12:13:03;21.45;;;20.35;;
1995;SDS011;38556;47.068;15.408;2023-02-02T12:15:38;20.63;;;19.42;;
1995;SDS011;38556;47.068;15.408;2023-02-02T12:18:18;19.92;;;18.98;;
1995;SDS011;38556;47.068;15.408;2023-02-02T12:20:57;20.80;;;19.75;;
1995;SDS011;38556;47.068;15.408;2023-02-02T12:23:37;20.67;;;19.40;;
1995;SDS011;38556;47.068;15.408;2023-02-02T12:26:17;20.80;;;19.75;;
1995;SDS011;38556;47.068;15.408;2023-02-02T12:28:54;23.92;;;22.48;;
1995;SDS011;38556;47.068;15.408;2023-02-02T12:31:39;20.30;;;19.17;;
1995;SDS011;38556;47.068;15.408;2023-02-02T12:34:27;22.00;;;20.85;;
1995;SDS011;38556;47.068;15.408;2023-02-02T12:37:02;21.73;;;20.45;;
1995;SDS011;38556;47.068;15.408;2023-02-02T12:39:38;22.60;;;21.40;;
1995;SDS011;38556;47.068;15.408;2023-02-02T12:42:24;21.25;;;19.95;;
1995;SDS011;38556;47.068;15.408;2023-02-02T12:45:21;23.65;;;22.25;;
1995;SDS011;38556;47.068;15.408;2023-02-02T12:48:03;25.10;;;23.50;;
1995;SDS011;38556;47.068;15.408;2023-02-02T12:50:42;24.08;;;22.77;;
1995;SDS011;38556;47.068;15.408;2023-02-02T12:53:27;22.00;;;20.80;;
1995;SDS011;38556;47.068;15.408;2023-02-02T12:56:04;21.80;;;20.60;;
1995;SDS011;38556;47.068;15.408;2023-02-02T12:58:41;20.20;;;19.10;;
1995;SDS011;38556;47.068;15.408;2023-02-02T13:01:21;21.63;;;20.38;;
1995;SDS011;38556;47.068;15.408;2023-02-02T13:04:09;20.77;;;19.58;;
1995;SDS011;38556;47.068;15.408;2023-02-02T13:09:59;19.88;;;18.77;;
1995;SDS011;38556;47.068;15.408;2023-02-02T13:12:39;19.15;;;18.20;;
1995;SDS011;38556;47.068;15.408;2023-02-02T13:15:10;19.17;;;18.20;;
1995;SDS011;38556;47.068;15.408;2023-02-02T13:17:40;18.58;;;17.63;;
1995;SDS011;38556;47.068;15.408;2023-02-02T13:20:17;18.45;;;17.55;;
1995;SDS011;38556;47.068;15.408;2023-02-02T13:23:04;17.30;;;16.50;;
1995;SDS011;38556;47.068;15.408;2023-02-02T13:25:34;17.23;;;16.48;;
1995;SDS011;38556;47.068;15.408;2023-02-02T13:28:08;17.88;;;16.95;;
1995;SDS011;38556;47.068;15.408;2023-02-02T13:30:43;17.60;;;16.80;;
1995;SDS011;38556;47.068;15.408;2023-02-02T13:33:14;18.20;;;17.35;;
1995;SDS011;38556;47.068;15.408;2023-02-02T13:35:48;17.92;;;17.13;;
1995;SDS011;38556;47.068;15.408;2023-02-02T13:38:21;18.10;;;17.10;;
1995;SDS011;38556;47.068;15.408;2023-02-02T13:40:48;16.88;;;16.17;;
1995;SDS011;38556;47.068;15.408;2023-02-02T13:43:24;17.88;;;16.98;;
1995;SDS011;38556;47.068;15.408;2023-02-02T13:45:59;17.20;;;16.33;;
1995;SDS011;38556;47.068;15.408;2023-02-02T13:48:37;16.90;;;16.20;;
1995;SDS011;38556;47.068;15.408;2023-02-02T13:51:22;17.25;;;16.45;;
1995;SDS011;38556;47.068;15.408;2023-02-02T13:57:27;15.95;;;15.30;;
1995;SDS011;38556;47.068;15.408;2023-02-02T14:00:18;16.95;;;16.25;;
1995;SDS011;38556;47.068;15.408;2023-02-02T14:02:49;13.10;;;12.60;;
1995;SDS011;38556;47.068;15.408;2023-02-02T14:05:23;16.40;;;15.60;;
1995;SDS011;38556;47.068;15.408;2023-02-02T14:08:00;19.30;;;18.40;;
1995;SDS011;38556;47.068;15.408;2023-02-02T14:10:32;19.45;;;18.55;;
1995;SDS011;38556;47.068;15.408;2023-02-02T14:13:06;19.27;;;17.90;;
1995;SDS011;38556;47.068;15.408;2023-02-02T14:15:54;18.52;;;17.73;;
1995;SDS011;38556;47.068;15.408;2023-02-02T14:24:38;20.60;;;19.60;;
1995;SDS011;38556;47.068;15.408;2023-02-02T14:30:27;19.67;;;18.67;;
1995;SDS011;38556;47.068;15.408;2023-02-02T14:36:11;20.65;;;19.75;;
1995;SDS011;38556;47.068;15.408;2023-02-02T14:38:52;20.52;;;19.50;;
1995;SDS011;38556;47.068;15.408;2023-02-02T14:41:53;21.02;;;20.02;;
1995;SDS011;38556;47.068;15.408;2023-02-02T14:45:03;20.05;;;19.05;;
1995;SDS011;38556;47.068;15.408;2023-02-02T14:47:49;22.10;;;20.90;;
1995;SDS011;38556;47.068;15.408;2023-02-02T14:50:22;19.63;;;18.63;;
1995;SDS011;38556;47.068;15.408;2023-02-02T14:53:00;21.10;;;19.90;;
1995;SDS011;38556;47.068;15.408;2023-02-02T14:55:31;22.08;;;20.83;;
1995;SDS011;38556;47.068;15.408;2023-02-02T14:58:01;20.88;;;19.77;;
1995;SDS011;38556;47.068;15.408;2023-02-02T15:00:31;21.10;;;19.55;;
1995;SDS011;38556;47.068;15.408;2023-02-02T15:06:03;15.85;;;15.25;;
1995;SDS011;38556;47.068;15.408;2023-02-02T15:08:32;17.02;;;16.35;;
1995;SDS011;38556;47.068;15.408;2023-02-02T15:11:01;15.55;;;14.95;;
1995;SDS011;38556;47.068;15.408;2023-02-02T15:13:53;15.40;;;14.80;;
1995;SDS011;38556;47.068;15.408;2023-02-02T15:16:32;16.35;;;15.65;;
1995;SDS011;38556;47.068;15.408;2023-02-02T15:19:05;15.70;;;15.10;;
1995;SDS011;38556;47.068;15.408;2023-02-02T15:21:39;15.95;;;15.35;;